Portada
METAR-TAF:

METAR-TAF

Aeroports :

Midway, Estats Units d'Amèrica

latitud: 28-13N, longitud: 177-22W, altitud: 4 m

Observació

L'informe es va fer fa 29 minuts, a les 12:56 UTC
Vent 6 kt amb direcció variable
Temperatura 24°C
Humitat 89%
Pressió 1019 hPa
Visibilitat: 11.3 km
Cel clar

METAR: PMDY 211256Z AUTO VRB06KT 7SM CLR 24/22 A3009 RMK AO2 SLP189 T02440217

Hora: 03:25 (13:25 UTC)

Pronòstic

L'informe es va fer fa 30 minuts, a les 12:55 UTC
Pronòstic vàlid del 21 a les 13 UTC al 22 a les 12 UTC
Vent 10 kt del Nord-Est
Visibilitat: 10 km
Núvols disperses a una alçada de 2500 ft
A partir de les 21 a les 1800 UTC
Vent 4 kt amb direcció variable
Visibilitat: 10 km
Núvols disperses a una alçada de 2500 ft

TAF: PMDY 211255Z 2113/2212 05010KT P6SM SCT025 FM211800 VRB04KT P6SM SCT025

Observacions i pronòstics meteorològics de més de 4000 aeroports (METAR i TAF).

Les estacions disponibles són els punts grocs i vermells al mapa.

Posi el ratolí al punt desitjat per veure el nom de l'estació.

Feu clic per veure les observacions i els pronòstics meteorològics.

Per canviar el mapa: feu clic els botons verds amb una creu de color negre per apropar; al botó verd amb un guió per allunyar la imatge; o en les fletxes verdes per a mapes adjacents.


METAR-TAF: